West Monroe, Louisiana
Current Conditions -  °F | °C
As of 2:16 PM on Sunday 23 Nov 2014 (Local Time) from KMLU Reporting Station
Broken Clouds Broken Clouds  
Wind Chill: 68°   Ceiling: 4000
Heat Index: 68°   Visibility: 10mi
Dew Point: 62°   Wind: 13mph
Humidity: 81%   Direction: 200°SSW
Pressure: 29.47"   Gusts: 21mph
Location:  32.5°N, 92.13°W
Report Text: KMLU 232016Z 20011G18KT 10SM FEW020 SCT032 BKN040 20/17 A2947 RMK AO2 T02000167
Loading
Personal Weather Stations






























Interactive Weather Map New forecast layout! Learn more

10-Day Weather Forecast

Advertisements
Track Severe Weather on mobile